createdAt,value
2022-12-17T00:04:08.686Z,62.10
2022-12-17T00:08:30.383Z,48.83
2022-12-17T00:17:53.751Z,57.00
2022-12-17T00:22:14.971Z,55.40
2022-12-17T00:26:35.488Z,55.60
2022-12-17T00:30:55.873Z,55.00
2022-12-17T00:35:33.861Z,58.93
2022-12-17T00:39:59.088Z,50.37
2022-12-17T00:44:19.887Z,58.67
2022-12-17T00:48:40.249Z,61.77
2022-12-17T00:53:17.148Z,51.97
2022-12-17T00:57:41.182Z,50.47
2022-12-17T01:02:03.176Z,60.40
2022-12-17T01:06:38.816Z,57.67
2022-12-17T01:11:01.502Z,55.80
2022-12-17T01:20:07.288Z,59.23
2022-12-17T01:24:27.617Z,53.10
2022-12-17T01:28:54.841Z,50.83
2022-12-17T01:33:25.999Z,55.90
2022-12-17T01:37:55.610Z,55.90
2022-12-17T01:42:16.622Z,59.37
2022-12-17T01:46:44.461Z,49.43
2022-12-17T01:51:23.906Z,59.87
2022-12-17T01:56:18.374Z,53.63
2022-12-17T02:00:38.754Z,55.13
2022-12-17T02:05:15.762Z,46.17
2022-12-17T02:10:03.050Z,48.87
2022-12-17T02:14:34.684Z,47.40
2022-12-17T02:23:47.552Z,55.90
2022-12-17T02:28:09.422Z,53.20
2022-12-17T02:32:32.264Z,51.80
2022-12-17T02:36:53.298Z,50.83
2022-12-17T02:50:36.741Z,54.97
2022-12-17T02:54:57.003Z,52.77
2022-12-17T02:59:17.994Z,60.50
2022-12-17T03:03:40.571Z,58.17
2022-12-17T03:08:02.041Z,49.47
2022-12-17T03:12:22.978Z,47.03
2022-12-17T03:16:43.425Z,55.87
2022-12-17T03:21:07.569Z,56.07
2022-12-17T03:25:28.369Z,54.87
2022-12-17T03:29:48.768Z,50.60
2022-12-17T03:34:08.455Z,49.63
2022-12-17T03:38:31.748Z,54.03
2022-12-17T03:42:52.368Z,51.27
2022-12-17T03:47:13.036Z,53.07
2022-12-17T03:51:33.529Z,56.03
2022-12-17T03:55:55.332Z,52.93
2022-12-17T04:00:26.441Z,52.77
2022-12-17T04:04:47.227Z,53.03
2022-12-17T04:09:07.625Z,51.03
2022-12-17T04:13:29.557Z,50.63
2022-12-17T04:17:50.482Z,51.17
2022-12-17T04:22:10.852Z,60.40
2022-12-17T04:26:31.369Z,52.60
2022-12-17T04:30:53.555Z,53.20
2022-12-17T04:35:14.417Z,52.10
2022-12-17T04:39:35.022Z,52.90
2022-12-17T04:43:59.672Z,53.53
2022-12-17T04:48:27.276Z,50.43
2022-12-17T04:52:47.756Z,50.20
2022-12-17T04:57:11.712Z,49.77
2022-12-17T05:01:32.279Z,55.63
2022-12-17T05:05:54.436Z,51.67
2022-12-17T05:10:14.771Z,58.30
2022-12-17T05:14:35.397Z,55.33
2022-12-17T05:18:55.744Z,56.33
2022-12-17T05:23:24.716Z,57.70
2022-12-17T05:27:45.096Z,55.60
2022-12-17T05:32:05.512Z,57.33
2022-12-17T05:36:26.867Z,53.60
2022-12-17T05:40:48.489Z,54.03
2022-12-17T05:45:09.455Z,48.03
2022-12-17T05:49:30.037Z,49.50
2022-12-17T05:53:52.991Z,52.43
2022-12-17T05:58:21.604Z,51.60
2022-12-17T06:02:42.333Z,51.37
2022-12-17T06:07:02.851Z,52.83
2022-12-17T06:11:23.546Z,48.10
2022-12-17T06:15:45.554Z,51.23
2022-12-17T06:20:06.298Z,49.13
2022-12-17T06:24:27.089Z,44.60
2022-12-17T06:28:47.503Z,50.63
2022-12-17T06:33:09.545Z,51.73
2022-12-17T06:37:30.092Z,52.77
2022-12-17T06:41:50.698Z,54.13
2022-12-17T06:46:11.201Z,51.47
2022-12-17T06:50:33.996Z,51.17
2022-12-17T06:54:54.549Z,50.97
2022-12-17T06:59:15.201Z,51.50
2022-12-17T07:03:35.756Z,50.23
2022-12-17T07:07:57.993Z,48.67
2022-12-17T07:12:30.487Z,55.17
2022-12-17T07:16:54.917Z,55.47
2022-12-17T07:21:16.204Z,57.33
2022-12-17T07:25:41.606Z,63.17
2022-12-17T07:30:06.442Z,48.67
2022-12-17T07:34:27.210Z,57.40
2022-12-17T07:38:50.958Z,68.17
2022-12-17T07:43:12.964Z,52.67
2022-12-17T07:47:33.445Z,59.80
2022-12-17T07:51:54.231Z,55.40
2022-12-17T08:00:52.441Z,55.50
2022-12-17T08:05:13.282Z,54.57
2022-12-17T08:09:33.786Z,49.73
2022-12-17T08:13:54.166Z,54.27
2022-12-17T08:18:24.472Z,56.20
2022-12-17T08:22:46.962Z,67.03
2022-12-17T08:27:07.717Z,162.03
2022-12-17T08:31:28.219Z,53.43
2022-12-17T08:35:50.097Z,56.17
2022-12-17T08:40:10.703Z,64.03
2022-12-17T08:45:08.335Z,60.90
2022-12-17T08:50:02.591Z,68.77
2022-12-17T08:54:24.612Z,61.50
2022-12-17T08:58:59.955Z,67.03
2022-12-17T09:03:33.416Z,64.97
2022-12-17T09:08:40.664Z,60.97
2022-12-17T09:13:16.469Z,60.07
2022-12-17T09:17:46.099Z,58.23
2022-12-17T09:22:44.202Z,57.83
2022-12-17T09:27:38.579Z,66.63
2022-12-17T09:32:15.589Z,60.87
2022-12-17T09:36:51.415Z,70.87
2022-12-17T09:41:37.090Z,61.90
2022-12-17T09:46:14.744Z,63.67
2022-12-17T09:51:11.223Z,61.33
2022-12-17T09:55:48.844Z,290.10
2022-12-17T10:00:25.469Z,70.57
2022-12-17T10:10:05.111Z,70.00
2022-12-17T10:14:38.730Z,74.30
2022-12-17T10:19:36.804Z,71.73
2022-12-17T10:24:36.777Z,66.87
2022-12-17T10:29:34.435Z,61.53
2022-12-17T10:34:35.266Z,62.27
2022-12-17T10:39:21.394Z,63.43
2022-12-17T10:44:17.709Z,67.90
2022-12-17T10:49:15.596Z,68.97
2022-12-17T10:54:11.654Z,71.27
2022-12-17T10:58:48.739Z,70.47
2022-12-17T11:03:22.317Z,65.90
2022-12-17T11:08:01.810Z,68.37
2022-12-17T11:12:38.302Z,55.87
2022-12-17T11:17:09.775Z,61.30
2022-12-17T11:21:34.221Z,57.73
2022-12-17T11:26:15.348Z,57.20
2022-12-17T11:30:43.928Z,64.20
2022-12-17T11:35:38.928Z,62.23
2022-12-17T11:40:17.609Z,57.00
2022-12-17T11:45:01.543Z,57.93
2022-12-17T11:49:32.941Z,54.97
2022-12-17T11:54:03.889Z,60.53
2022-12-17T11:58:59.282Z,59.77
2022-12-17T12:03:49.114Z,57.63
2022-12-17T12:08:20.540Z,55.50
2022-12-17T12:12:59.412Z,53.40
2022-12-17T12:17:34.474Z,51.40
2022-12-17T12:22:33.445Z,51.30
2022-12-17T12:27:15.910Z,40.77
2022-12-17T12:31:45.931Z,45.93
2022-12-17T12:36:17.851Z,27.80
2022-12-17T12:41:12.801Z,32.47
2022-12-17T12:45:56.232Z,25.57
2022-12-17T12:50:45.893Z,27.03
2022-12-17T12:55:11.844Z,26.10
2022-12-17T12:59:46.899Z,28.47
2022-12-17T13:04:14.748Z,30.93
2022-12-17T13:08:30.225Z,39.17
2022-12-17T13:13:12.402Z,33.13
2022-12-17T13:17:46.801Z,30.30
2022-12-17T13:22:30.476Z,28.37
2022-12-17T13:27:04.506Z,34.10
2022-12-17T13:31:48.627Z,32.00
2022-12-17T13:36:19.418Z,27.03
2022-12-17T13:40:35.895Z,27.77
2022-12-17T13:44:58.013Z,25.43
2022-12-17T13:49:34.611Z,30.77
2022-12-17T13:54:18.840Z,29.60
2022-12-17T13:58:26.595Z,28.77
2022-12-17T14:02:57.329Z,25.47
2022-12-17T14:07:55.046Z,27.60
2022-12-17T14:12:34.925Z,31.83
2022-12-17T14:17:16.021Z,28.70
2022-12-17T14:21:46.788Z,29.13
2022-12-17T14:26:23.778Z,32.17
2022-12-17T14:30:35.250Z,54.63
2022-12-17T14:35:04.861Z,41.63
2022-12-17T14:39:44.820Z,47.23
2022-12-17T14:44:21.725Z,36.60
2022-12-17T14:49:10.909Z,30.83
2022-12-17T14:53:41.468Z,35.87
2022-12-17T14:58:21.182Z,30.60
2022-12-17T15:02:58.147Z,26.27
2022-12-17T15:07:56.417Z,30.50
2022-12-17T15:12:33.509Z,27.13
2022-12-17T15:17:12.174Z,30.37
2022-12-17T15:21:45.706Z,31.17
2022-12-17T15:26:22.410Z,34.03
2022-12-17T15:30:26.270Z,30.40
2022-12-17T15:35:01.878Z,29.60
2022-12-17T15:39:35.664Z,34.70
2022-12-17T15:44:13.170Z,29.50
2022-12-17T15:48:18.217Z,28.60
2022-12-17T15:52:31.458Z,25.93
2022-12-17T15:56:34.895Z,26.10
2022-12-17T16:00:38.105Z,25.93
2022-12-17T16:05:14.941Z,28.00
2022-12-17T16:09:53.488Z,29.13
2022-12-17T16:14:33.445Z,20.03
2022-12-17T16:19:10.553Z,23.87
2022-12-17T16:23:47.537Z,33.67
2022-12-17T16:27:51.957Z,25.93
2022-12-17T16:32:25.790Z,28.03
2022-12-17T16:36:28.911Z,35.23
2022-12-17T16:41:04.288Z,26.43
2022-12-17T16:45:09.881Z,28.60
2022-12-17T16:49:43.477Z,33.43
2022-12-17T16:53:46.706Z,34.57
2022-12-17T16:58:23.379Z,36.27
2022-12-17T17:02:27.934Z,38.43
2022-12-17T17:07:01.966Z,32.67
2022-12-17T17:11:16.108Z,38.57
2022-12-17T17:15:19.232Z,38.10
2022-12-17T17:19:23.710Z,37.57
2022-12-17T17:23:58.582Z,33.17
2022-12-17T17:28:32.671Z,31.00
2022-12-17T17:32:35.741Z,38.60
2022-12-17T17:36:41.317Z,35.53
2022-12-17T17:40:44.297Z,39.53
2022-12-17T17:44:48.819Z,35.53
2022-12-17T17:49:25.425Z,43.87
2022-12-17T17:53:29.945Z,34.33
2022-12-17T17:57:37.909Z,32.70
2022-12-17T18:01:43.205Z,35.60
2022-12-17T18:05:46.334Z,41.67
2022-12-17T18:09:51.042Z,47.83
2022-12-17T18:14:02.673Z,44.27
2022-12-17T18:18:33.695Z,44.73
2022-12-17T18:22:36.888Z,40.97
2022-12-17T18:27:12.244Z,40.03
2022-12-17T18:31:17.123Z,51.10
2022-12-17T18:35:20.362Z,49.13
2022-12-17T18:39:56.782Z,48.30
2022-12-17T18:44:02.941Z,51.20
2022-12-17T18:48:06.397Z,40.90
2022-12-17T18:52:16.232Z,60.60
2022-12-17T18:57:01.675Z,38.93
2022-12-17T19:01:07.503Z,42.43
2022-12-17T19:05:10.821Z,47.70
2022-12-17T19:09:18.990Z,41.47
2022-12-17T19:13:22.150Z,37.23
2022-12-17T19:17:26.590Z,41.73
2022-12-17T19:22:00.509Z,43.13
2022-12-17T19:26:37.465Z,38.30
2022-12-17T19:30:40.471Z,41.33
2022-12-17T19:34:45.005Z,52.63
2022-12-17T19:39:18.646Z,56.13
2022-12-17T19:43:21.712Z,43.47
2022-12-17T19:47:55.624Z,47.43
2022-12-17T19:52:00.030Z,63.43
2022-12-17T19:56:34.210Z,61.73
2022-12-17T20:01:11.964Z,73.47
2022-12-17T20:05:46.192Z,65.00
2022-12-17T20:09:50.588Z,73.03
2022-12-17T20:13:54.902Z,77.30
2022-12-17T20:18:32.488Z,84.23
2022-12-17T20:22:35.536Z,77.13
2022-12-17T20:27:13.881Z,83.30
2022-12-17T20:31:18.147Z,96.40
2022-12-17T20:35:22.058Z,89.40
2022-12-17T20:39:55.996Z,135.43
2022-12-17T20:44:34.442Z,97.23
2022-12-17T20:49:12.348Z,132.33
2022-12-17T20:53:46.475Z,112.60
2022-12-17T20:58:23.232Z,95.43
2022-12-17T21:03:01.788Z,92.20
2022-12-17T21:07:35.510Z,109.27
2022-12-17T21:12:13.563Z,97.03
2022-12-17T21:16:47.894Z,200.60
2022-12-17T21:21:25.169Z,93.77
2022-12-17T21:25:29.577Z,139.70
2022-12-17T21:29:32.679Z,121.50
2022-12-17T21:33:35.746Z,112.90
2022-12-17T21:37:39.209Z,110.13
2022-12-17T21:42:04.880Z,99.17
2022-12-17T21:46:08.766Z,129.20
2022-12-17T21:50:11.995Z,101.03
2022-12-17T21:54:45.834Z,99.47
2022-12-17T21:58:50.798Z,110.00
2022-12-17T22:02:54.030Z,102.23
2022-12-17T22:07:06.190Z,105.47
2022-12-17T22:11:11.724Z,101.10
2022-12-17T22:15:48.703Z,103.97
2022-12-17T22:19:53.249Z,89.67
2022-12-17T22:23:56.261Z,98.73
2022-12-17T22:27:59.861Z,93.60
2022-12-17T22:32:20.399Z,109.30
2022-12-17T22:38:01.064Z,101.77
2022-12-17T22:44:37.716Z,108.43
2022-12-17T22:45:13.079Z,92.67
2022-12-17T22:49:17.368Z,106.70
2022-12-17T22:53:22.128Z,98.70
2022-12-17T22:57:36.964Z,103.23
2022-12-17T23:01:59.971Z,115.73
2022-12-17T23:06:13.815Z,115.27
2022-12-17T23:10:19.531Z,102.47
2022-12-17T23:14:53.706Z,143.53
2022-12-17T23:18:56.872Z,99.90
2022-12-17T23:23:33.396Z,98.27
2022-12-17T23:27:38.263Z,121.10
2022-12-17T23:32:11.899Z,126.70
2022-12-17T23:36:16.709Z,110.27
2022-12-17T23:40:19.958Z,118.87
2022-12-17T23:44:53.649Z,105.37
2022-12-17T23:48:58.483Z,85.13
2022-12-17T23:53:33.094Z,93.47
2022-12-17T23:57:36.184Z,173.87
